Time;durP1;ratioP1;P1;durP2;ratioP2;P2;SDS_P1;SDS_P2;PMS_P1;PMS_P2;Temp;Humidity;BMP_temperature;BMP_pressure;BME280_temperature;BME280_humidity;BME280_pressure;Samples;Min_cycle;Max_cycle;Signal;HPM_P1;HPM_P2
2022/08/09 00:01:47;;;;;;;9.75;3.20;;;;;;;;;;5054136;28;20085;-77
2022/08/09 00:04:18;;;;;;;12.15;3.55;;;;;;;;;;5054240;28;20261;-77
2022/08/09 00:06:45;;;;;;;10.98;3.28;;;;;;;;;;5054096;28;20055;-76
2022/08/09 00:09:12;;;;;;;9.82;2.92;;;;;;;;;;5053317;28;20036;-75
2022/08/09 00:11:38;;;;;;;7.88;3.20;;;;;;;;;;5053840;28;20037;-77
2022/08/09 00:14:04;;;;;;;6.50;2.65;;;;;;;;;;5053376;28;20147;-76
2022/08/09 00:16:30;;;;;;;9.57;3.03;;;;;;;;;;5053804;28;20432;-77
2022/08/09 00:18:56;;;;;;;7.13;2.90;;;;;;;;;;5053349;28;20028;-76
2022/08/09 00:21:23;;;;;;;5.38;2.80;;;;;;;;;;5053304;28;20028;-78
2022/08/09 00:23:49;;;;;;;8.63;2.70;;;;;;;;;;5052962;28;20116;-76
2022/08/09 00:26:14;;;;;;;11.15;3.05;;;;;;;;;;5053439;28;20071;-77
2022/08/09 00:28:41;;;;;;;7.00;2.80;;;;;;;;;;5053127;28;20492;-75
2022/08/09 00:31:06;;;;;;;7.28;2.60;;;;;;;;;;5053087;28;20021;-76
2022/08/09 00:33:34;;;;;;;9.40;3.05;;;;;;;;;;5052218;28;20037;-73
2022/08/09 00:36:01;;;;;;;4.93;3.05;;;;;;;;;;5051810;28;20053;-74
2022/08/09 00:38:27;;;;;;;10.40;3.03;;;;;;;;;;5049031;28;20373;-73
2022/08/09 00:40:53;;;;;;;9.00;2.85;;;;;;;;;;5053006;28;20043;-73
2022/08/09 00:43:21;;;;;;;5.63;2.95;;;;;;;;;;5052816;28;20054;-76
2022/08/09 00:45:47;;;;;;;6.07;2.97;;;;;;;;;;5052873;28;20048;-76
2022/08/09 00:48:13;;;;;;;7.65;2.83;;;;;;;;;;5043338;28;20223;-74
2022/08/09 00:50:39;;;;;;;5.07;2.50;;;;;;;;;;5052579;28;20098;-77
2022/08/09 00:53:06;;;;;;;5.32;2.90;;;;;;;;;;5051996;28;20036;-75
2022/08/09 00:55:32;;;;;;;4.38;2.60;;;;;;;;;;5052575;28;20036;-77
2022/08/09 00:57:59;;;;;;;5.93;2.85;;;;;;;;;;5052629;28;20040;-72
2022/08/09 01:00:25;;;;;;;11.57;3.05;;;;;;;;;;5052499;28;20032;-74
2022/08/09 01:03:12;;;;;;;7.50;3.30;;;;;;;;;;5035793;28;20111;-75
2022/08/09 01:05:55;;;;;;;7.00;3.20;;;;;;;;;;5035634;28;20053;-75
2022/08/09 01:08:39;;;;;;;6.15;3.03;;;;;;;;;;5036225;28;20029;-74
2022/08/09 01:11:35;;;;;;;5.28;2.90;;;;;;;;;;5030682;28;20113;-76
2022/08/09 01:14:06;;;;;;;7.20;3.00;;;;;;;;;;5041412;28;20428;-74
2022/08/09 01:16:38;;;;;;;4.35;2.78;;;;;;;;;;5032280;28;20110;-76
2022/08/09 01:19:26;;;;;;;4.60;2.95;;;;;;;;;;5031574;28;20120;-78
2022/08/09 01:22:12;;;;;;;8.57;2.80;;;;;;;;;;5032732;28;20036;-75
2022/08/09 01:24:58;;;;;;;5.50;3.03;;;;;;;;;;5032514;28;20045;-74
2022/08/09 01:27:26;;;;;;;4.00;2.63;;;;;;;;;;5032541;28;20029;-75
2022/08/09 01:30:01;;;;;;;6.07;3.13;;;;;;;;;;5031195;28;20366;-74
2022/08/09 01:32:37;;;;;;;4.95;2.70;;;;;;;;;;5031963;28;20365;-73
2022/08/09 01:35:08;;;;;;;6.32;3.20;;;;;;;;;;5031429;28;20493;-74
2022/08/09 01:37:36;;;;;;;6.78;2.53;;;;;;;;;;5031934;28;20037;-74
2022/08/09 01:40:05;;;;;;;5.63;2.63;;;;;;;;;;5035593;28;20052;-74
2022/08/09 01:42:34;;;;;;;4.93;2.88;;;;;;;;;;5041339;28;20551;-75
2022/08/09 01:45:01;;;;;;;6.60;2.80;;;;;;;;;;5031799;28;20044;-75
2022/08/09 01:47:28;;;;;;;4.93;2.80;;;;;;;;;;5031291;28;20488;-74
2022/08/09 01:49:55;;;;;;;5.63;2.75;;;;;;;;;;5031793;28;20042;-75
2022/08/09 01:52:22;;;;;;;4.88;2.85;;;;;;;;;;5038356;28;20488;-74
2022/08/09 01:54:53;;;;;;;7.72;3.10;;;;;;;;;;5046757;28;20044;-74
2022/08/09 01:57:40;;;;;;;7.88;3.13;;;;;;;;;;5032073;28;20072;-75
2022/08/09 02:00:08;;;;;;;9.95;3.08;;;;;;;;;;5031951;28;20030;-73
2022/08/09 02:02:46;;;;;;;9.13;3.30;;;;;;;;;;5031651;28;20049;-72
2022/08/09 02:05:17;;;;;;;11.80;2.92;;;;;;;;;;5050668;28;20068;-73
2022/08/09 02:07:51;;;;;;;7.57;3.00;;;;;;;;;;5045193;28;20029;-73
2022/08/09 02:10:24;;;;;;;6.05;2.55;;;;;;;;;;5034633;28;20481;-74
2022/08/09 02:12:54;;;;;;;6.93;2.85;;;;;;;;;;5031692;28;20044;-73
2022/08/09 02:15:23;;;;;;;6.72;2.35;;;;;;;;;;5031394;28;20090;-73
2022/08/09 02:17:52;;;;;;;4.53;2.80;;;;;;;;;;5031533;28;20064;-73
2022/08/09 02:20:18;;;;;;;10.93;3.45;;;;;;;;;;5031566;28;20037;-73
2022/08/09 02:23:09;;;;;;;7.53;2.92;;;;;;;;;;5031563;28;20173;-72
2022/08/09 02:25:39;;;;;;;5.53;2.97;;;;;;;;;;5024351;28;20041;-73
2022/08/09 02:28:12;;;;;;;4.50;2.85;;;;;;;;;;5031267;28;20435;-73
2022/08/09 02:30:48;;;;;;;17.02;4.47;;;;;;;;;;5031421;28;20030;-73
2022/08/09 02:33:21;;;;;;;10.73;4.38;;;;;;;;;;5030218;28;20045;-72
2022/08/09 02:35:49;;;;;;;10.20;3.47;;;;;;;;;;5031475;28;20493;-72
2022/08/09 02:38:22;;;;;;;11.68;3.85;;;;;;;;;;5031624;28;20041;-73
2022/08/09 02:40:48;;;;;;;6.38;3.42;;;;;;;;;;5031525;28;20033;-73
2022/08/09 02:43:19;;;;;;;7.05;3.20;;;;;;;;;;5031725;28;20111;-73
2022/08/09 02:45:48;;;;;;;13.13;3.17;;;;;;;;;;5042100;28;20120;-73
2022/08/09 02:48:17;;;;;;;15.68;4.25;;;;;;;;;;5031398;28;20060;-72
2022/08/09 02:50:54;;;;;;;10.98;4.20;;;;;;;;;;5041912;28;20033;-73
2022/08/09 02:53:28;;;;;;;12.50;3.75;;;;;;;;;;5051229;28;20040;-74
2022/08/09 02:55:56;;;;;;;8.85;3.30;;;;;;;;;;5051321;28;20028;-73
2022/08/09 02:58:25;;;;;;;7.57;3.00;;;;;;;;;;5051132;28;20103;-74
2022/08/09 03:00:52;;;;;;;5.93;2.95;;;;;;;;;;5054943;28;20033;-73
2022/08/09 03:03:18;;;;;;;6.18;2.90;;;;;;;;;;5055280;28;20040;-73
2022/08/09 03:05:45;;;;;;;8.77;3.00;;;;;;;;;;5054858;28;20131;-73
2022/08/09 03:08:12;;;;;;;9.68;3.00;;;;;;;;;;5055082;28;20029;-73
2022/08/09 03:10:40;;;;;;;5.63;2.60;;;;;;;;;;5054850;28;20043;-74
2022/08/09 03:13:07;;;;;;;7.68;3.00;;;;;;;;;;5054757;28;20040;-73
2022/08/09 03:15:33;;;;;;;8.07;2.88;;;;;;;;;;5054860;28;20416;-73
2022/08/09 03:18:01;;;;;;;7.07;3.28;;;;;;;;;;5051267;28;20125;-73
2022/08/09 03:20:28;;;;;;;6.97;2.92;;;;;;;;;;5050436;28;20376;-74
2022/08/09 03:22:55;;;;;;;8.43;3.20;;;;;;;;;;5054541;28;20044;-72
2022/08/09 03:25:21;;;;;;;6.85;2.70;;;;;;;;;;5054412;28;20090;-73
2022/08/09 03:27:50;;;;;;;8.20;3.28;;;;;;;;;;5054021;28;20033;-72
2022/08/09 03:30:17;;;;;;;6.07;2.95;;;;;;;;;;5054470;28;20151;-72
2022/08/09 03:32:44;;;;;;;4.88;2.80;;;;;;;;;;5054424;28;20437;-73
2022/08/09 03:35:10;;;;;;;7.63;3.10;;;;;;;;;;5054203;28;20110;-73
2022/08/09 03:37:38;;;;;;;9.52;3.15;;;;;;;;;;5054281;28;20062;-73
2022/08/09 03:40:05;;;;;;;8.20;3.03;;;;;;;;;;5054008;28;20476;-73
2022/08/09 03:42:31;;;;;;;11.25;3.22;;;;;;;;;;5054078;28;20040;-73
2022/08/09 03:44:57;;;;;;;5.75;2.92;;;;;;;;;;5054000;28;20033;-73
2022/08/09 03:47:23;;;;;;;5.32;3.20;;;;;;;;;;5052439;28;20055;-73
2022/08/09 03:49:50;;;;;;;8.95;3.22;;;;;;;;;;5053849;28;20037;-73
2022/08/09 03:52:18;;;;;;;8.57;3.20;;;;;;;;;;5054100;28;20047;-73
2022/08/09 03:54:46;;;;;;;7.68;3.45;;;;;;;;;;5053840;28;20551;-73
2022/08/09 03:57:14;;;;;;;7.13;3.50;;;;;;;;;;5046876;28;20454;-73
2022/08/09 03:59:43;;;;;;;6.70;3.00;;;;;;;;;;5035065;28;20436;-72
2022/08/09 04:02:10;;;;;;;14.45;3.72;;;;;;;;;;5033630;28;20388;-73
2022/08/09 04:04:36;;;;;;;16.00;3.63;;;;;;;;;;5037762;28;20025;-73
2022/08/09 04:07:03;;;;;;;19.10;5.30;;;;;;;;;;5053626;28;20084;-73
2022/08/09 04:09:29;;;;;;;13.65;3.83;;;;;;;;;;5053503;28;20036;-73
2022/08/09 04:12:16;;;;;;;10.32;3.55;;;;;;;;;;5053716;28;20121;-72
2022/08/09 04:14:42;;;;;;;11.60;3.42;;;;;;;;;;5053460;28;20048;-73
2022/08/09 04:17:08;;;;;;;7.25;3.30;;;;;;;;;;5050978;28;20026;-73
2022/08/09 04:19:34;;;;;;;6.72;3.85;;;;;;;;;;5040890;28;20132;-73
2022/08/09 04:22:00;;;;;;;11.75;3.75;;;;;;;;;;5033490;28;20068;-73
2022/08/09 04:24:26;;;;;;;8.80;3.22;;;;;;;;;;5033481;28;20065;-73
2022/08/09 04:26:53;;;;;;;8.77;3.10;;;;;;;;;;5041574;28;20029;-73
2022/08/09 04:29:19;;;;;;;14.05;4.00;;;;;;;;;;5043189;28;20033;-73
2022/08/09 04:31:45;;;;;;;11.15;4.20;;;;;;;;;;5033690;28;20112;-73
2022/08/09 04:34:11;;;;;;;16.75;4.18;;;;;;;;;;5032744;28;20552;-73
2022/08/09 04:36:37;;;;;;;13.18;3.72;;;;;;;;;;5034978;28;20491;-74
2022/08/09 04:39:08;;;;;;;16.20;3.70;;;;;;;;;;5042098;28;20141;-74
2022/08/09 04:41:35;;;;;;;13.30;3.35;;;;;;;;;;5032635;28;20037;-74
2022/08/09 04:44:03;;;;;;;9.77;3.15;;;;;;;;;;5032516;28;20045;-74
2022/08/09 04:46:29;;;;;;;11.05;3.38;;;;;;;;;;5033358;28;20103;-73
2022/08/09 04:48:55;;;;;;;7.40;3.42;;;;;;;;;;5046991;28;20064;-74
2022/08/09 04:51:21;;;;;;;10.98;3.60;;;;;;;;;;5052453;28;20353;-74
2022/08/09 04:53:47;;;;;;;14.25;4.13;;;;;;;;;;5051210;28;20467;-74
2022/08/09 04:56:13;;;;;;;13.82;4.25;;;;;;;;;;5042689;28;20057;-74
2022/08/09 04:58:39;;;;;;;10.18;3.47;;;;;;;;;;5041072;28;20025;-74
2022/08/09 05:01:05;;;;;;;11.48;3.75;;;;;;;;;;5041821;28;20051;-75
2022/08/09 05:03:31;;;;;;;26.58;4.50;;;;;;;;;;5031948;28;20080;-76
2022/08/09 05:05:57;;;;;;;13.82;3.22;;;;;;;;;;5032058;28;20040;-75
2022/08/09 05:08:23;;;;;;;15.57;3.90;;;;;;;;;;5049015;28;20499;-75
2022/08/09 05:10:49;;;;;;;13.43;3.45;;;;;;;;;;5051943;28;20037;-74
2022/08/09 05:13:15;;;;;;;8.38;3.80;;;;;;;;;;5045605;28;20037;-75
2022/08/09 05:15:41;;;;;;;10.18;3.33;;;;;;;;;;5039755;28;20411;-74
2022/08/09 05:18:07;;;;;;;14.38;3.55;;;;;;;;;;5053120;28;20025;-75
2022/08/09 05:20:33;;;;;;;19.45;3.53;;;;;;;;;;5052989;28;20060;-75
2022/08/09 05:22:59;;;;;;;13.02;3.53;;;;;;;;;;5050117;28;20111;-80
2022/08/09 05:25:25;;;;;;;17.92;4.05;;;;;;;;;;5052818;28;20102;-81
2022/08/09 05:27:52;;;;;;;11.77;3.55;;;;;;;;;;5036187;28;20029;-81
2022/08/09 05:30:18;;;;;;;8.75;2.90;;;;;;;;;;5032942;28;20061;-81
2022/08/09 05:32:44;;;;;;;20.33;3.83;;;;;;;;;;5035102;28;20029;-81
2022/08/09 05:35:10;;;;;;;13.95;3.65;;;;;;;;;;5039059;28;20038;-80
2022/08/09 05:37:37;;;;;;;6.43;2.88;;;;;;;;;;5032560;28;20029;-81
2022/08/09 05:40:04;;;;;;;6.28;3.05;;;;;;;;;;5039703;28;20032;-81
2022/08/09 05:42:30;;;;;;;7.80;3.55;;;;;;;;;;5036493;28;20030;-79
2022/08/09 05:44:56;;;;;;;6.13;2.95;;;;;;;;;;5041961;28;20039;-79
2022/08/09 05:47:23;;;;;;;14.82;3.22;;;;;;;;;;5033106;28;20041;-83
2022/08/09 05:49:51;;;;;;;10.43;3.10;;;;;;;;;;5037404;28;20056;-80
2022/08/09 05:52:17;;;;;;;9.05;3.30;;;;;;;;;;5032742;28;20040;-78
2022/08/09 05:54:43;;;;;;;5.93;3.38;;;;;;;;;;5032367;28;20037;-79
2022/08/09 05:57:09;;;;;;;6.05;2.72;;;;;;;;;;5032434;28;20396;-77
2022/08/09 05:59:35;;;;;;;9.18;2.88;;;;;;;;;;5032364;28;20088;-81
2022/08/09 06:02:02;;;;;;;4.63;2.65;;;;;;;;;;5032330;28;20037;-76
2022/08/09 06:04:28;;;;;;;11.60;3.22;;;;;;;;;;5032501;28;20056;-78
2022/08/09 06:06:54;;;;;;;8.68;3.03;;;;;;;;;;5050009;28;20476;-83
2022/08/09 06:09:20;;;;;;;6.00;2.60;;;;;;;;;;5052486;28;20032;-78
2022/08/09 06:11:46;;;;;;;4.10;2.33;;;;;;;;;;5052181;28;20104;-75
2022/08/09 06:14:12;;;;;;;9.27;2.83;;;;;;;;;;5041861;28;20025;-75
2022/08/09 06:16:38;;;;;;;8.75;2.92;;;;;;;;;;5034353;28;20087;-77
2022/08/09 06:19:04;;;;;;;7.20;3.13;;;;;;;;;;5032411;28;20396;-76
2022/08/09 06:21:30;;;;;;;9.55;2.65;;;;;;;;;;5039224;28;20045;-76
2022/08/09 06:23:56;;;;;;;7.53;2.42;;;;;;;;;;5039548;28;20033;-76
2022/08/09 06:26:23;;;;;;;10.05;2.80;;;;;;;;;;5032233;28;20052;-75
2022/08/09 06:28:54;;;;;;;12.40;2.30;;;;;;;;;;5042954;28;20164;-76
2022/08/09 06:31:20;;;;;;;7.32;2.15;;;;;;;;;;5049062;28;20033;-76
2022/08/09 06:33:47;;;;;;;9.23;2.67;;;;;;;;;;5044349;28;20047;-74
2022/08/09 06:36:13;;;;;;;6.38;2.50;;;;;;;;;;5043340;28;20180;-75
2022/08/09 06:38:39;;;;;;;6.55;2.25;;;;;;;;;;5055627;28;20032;-74
2022/08/09 06:41:05;;;;;;;6.32;2.42;;;;;;;;;;5055255;28;20494;-75
2022/08/09 06:43:31;;;;;;;5.28;2.30;;;;;;;;;;5055931;28;20036;-76
2022/08/09 06:45:57;;;;;;;7.20;2.78;;;;;;;;;;5055783;28;20036;-75
2022/08/09 06:48:24;;;;;;;10.32;2.60;;;;;;;;;;5053748;28;20151;-75
2022/08/09 06:50:52;;;;;;;12.30;2.80;;;;;;;;;;5055901;28;20033;-72
2022/08/09 06:53:18;;;;;;;11.23;2.72;;;;;;;;;;5055476;28;20539;-72
2022/08/09 06:55:44;;;;;;;13.65;2.65;;;;;;;;;;5055275;28;20395;-73
2022/08/09 06:58:10;;;;;;;10.07;2.33;;;;;;;;;;5055536;28;20037;-72
2022/08/09 07:00:36;;;;;;;4.47;2.20;;;;;;;;;;5055475;28;20476;-72
2022/08/09 07:03:03;;;;;;;5.40;2.30;;;;;;;;;;5053493;28;20064;-72
2022/08/09 07:05:29;;;;;;;9.02;2.90;;;;;;;;;;5054216;28;20387;-74
2022/08/09 07:07:55;;;;;;;7.25;2.53;;;;;;;;;;5055634;28;20025;-73
2022/08/09 07:10:22;;;;;;;9.93;2.50;;;;;;;;;;5054260;28;20088;-73
2022/08/09 07:12:49;;;;;;;8.98;2.08;;;;;;;;;;5052706;28;20357;-73
2022/08/09 07:15:15;;;;;;;5.95;1.83;;;;;;;;;;5054993;28;20037;-72
2022/08/09 07:17:42;;;;;;;6.70;2.20;;;;;;;;;;5055182;28;20032;-72
2022/08/09 07:20:08;;;;;;;5.68;2.17;;;;;;;;;;5054867;28;20029;-72
2022/08/09 07:22:35;;;;;;;4.50;2.08;;;;;;;;;;5054979;28;20033;-71
2022/08/09 07:25:04;;;;;;;8.20;2.03;;;;;;;;;;5054100;28;20044;-73
2022/08/09 07:27:30;;;;;;;8.05;2.17;;;;;;;;;;5054425;28;20025;-72
2022/08/09 07:29:56;;;;;;;7.88;2.03;;;;;;;;;;5054764;28;20060;-74
2022/08/09 07:32:22;;;;;;;4.18;2.42;;;;;;;;;;5054917;28;20445;-75
2022/08/09 07:34:48;;;;;;;5.70;2.05;;;;;;;;;;5054580;28;20124;-73
2022/08/09 07:37:15;;;;;;;3.78;1.40;;;;;;;;;;5052932;28;20033;-74
2022/08/09 07:39:41;;;;;;;3.40;1.95;;;;;;;;;;5054451;28;20036;-75
2022/08/09 07:42:07;;;;;;;5.55;1.92;;;;;;;;;;5054512;28;20104;-75
2022/08/09 07:44:33;;;;;;;7.85;2.15;;;;;;;;;;5053845;28;20116;-74
2022/08/09 07:46:59;;;;;;;6.18;2.45;;;;;;;;;;5054144;28;20128;-75
2022/08/09 07:49:25;;;;;;;7.45;1.90;;;;;;;;;;5053967;28;20444;-75
2022/08/09 07:51:51;;;;;;;4.18;1.85;;;;;;;;;;5054116;28;20040;-74
2022/08/09 07:54:17;;;;;;;7.28;1.80;;;;;;;;;;5054498;28;20033;-73
2022/08/09 07:56:43;;;;;;;3.35;1.60;;;;;;;;;;5036617;28;20108;-74
2022/08/09 07:59:08;;;;;;;11.18;1.88;;;;;;;;;;5054284;28;20083;-75
2022/08/09 08:01:34;;;;;;;7.40;1.75;;;;;;;;;;5053971;28;20108;-72
2022/08/09 08:04:01;;;;;;;5.38;1.80;;;;;;;;;;5053865;28;20025;-73
2022/08/09 08:06:28;;;;;;;4.85;1.73;;;;;;;;;;5054218;28;20451;-72
2022/08/09 08:08:54;;;;;;;8.57;1.95;;;;;;;;;;5053981;28;20365;-73
2022/08/09 08:11:20;;;;;;;7.97;1.80;;;;;;;;;;5053912;28;20499;-73
2022/08/09 08:13:46;;;;;;;5.10;1.80;;;;;;;;;;5048964;28;20554;-74
2022/08/09 08:16:12;;;;;;;2.30;1.40;;;;;;;;;;5052769;28;20487;-72
2022/08/09 08:18:38;;;;;;;3.53;1.50;;;;;;;;;;5053140;28;20036;-72
2022/08/09 08:21:04;;;;;;;5.85;2.10;;;;;;;;;;5052460;28;20037;-71
2022/08/09 08:23:30;;;;;;;6.88;2.63;;;;;;;;;;5053480;28;20044;-72
2022/08/09 08:25:56;;;;;;;8.68;1.73;;;;;;;;;;5052750;28;20174;-71
2022/08/09 08:28:22;;;;;;;5.07;1.60;;;;;;;;;;5051772;28;20108;-70
2022/08/09 08:30:48;;;;;;;2.88;1.50;;;;;;;;;;5044501;28;20048;-71
2022/08/09 08:33:15;;;;;;;4.97;1.50;;;;;;;;;;5036250;28;20041;-71
2022/08/09 08:35:41;;;;;;;6.15;1.83;;;;;;;;;;5041245;28;20037;-71
2022/08/09 08:38:07;;;;;;;3.95;1.58;;;;;;;;;;5048612;28;20036;-71
2022/08/09 08:40:33;;;;;;;6.20;1.58;;;;;;;;;;5049496;28;20060;-71
2022/08/09 08:43:01;;;;;;;6.93;1.67;;;;;;;;;;5051734;28;20035;-71
2022/08/09 08:45:53;;;;;;;12.52;2.00;;;;;;;;;;5052366;28;20444;-70
2022/08/09 08:48:20;;;;;;;6.38;1.85;;;;;;;;;;5039167;28;20116;-71
2022/08/09 08:50:46;;;;;;;3.38;1.48;;;;;;;;;;5042575;28;20033;-71
2022/08/09 08:53:14;;;;;;;5.72;1.55;;;;;;;;;;5052639;28;20060;-71
2022/08/09 08:55:42;;;;;;;5.40;1.67;;;;;;;;;;5051797;28;20124;-70
2022/08/09 08:58:11;;;;;;;5.10;1.80;;;;;;;;;;5050835;28;20400;-71
2022/08/09 09:00:39;;;;;;;4.93;1.98;;;;;;;;;;5036124;28;20041;-70
2022/08/09 09:03:05;;;;;;;6.88;2.00;;;;;;;;;;5032099;28;20068;-71
2022/08/09 09:05:32;;;;;;;10.27;1.73;;;;;;;;;;5031850;28;20072;-70
2022/08/09 09:08:00;;;;;;;7.03;1.80;;;;;;;;;;5040275;28;20025;-70
2022/08/09 09:10:28;;;;;;;4.70;1.60;;;;;;;;;;5046195;28;20025;-70
2022/08/09 09:12:54;;;;;;;4.47;1.63;;;;;;;;;;5045531;28;20055;-71
2022/08/09 09:15:20;;;;;;;8.27;1.50;;;;;;;;;;5051288;28;20659;-69
2022/08/09 09:17:46;;;;;;;6.60;1.50;;;;;;;;;;5051826;28;20039;-70
2022/08/09 09:20:14;;;;;;;8.27;1.98;;;;;;;;;;5050839;28;20032;-70
2022/08/09 09:23:09;;;;;;;6.47;1.70;;;;;;;;;;5051821;28;20025;-71
2022/08/09 09:25:42;;;;;;;6.50;1.98;;;;;;;;;;5047158;28;20076;-71
2022/08/09 09:28:10;;;;;;;2.75;1.42;;;;;;;;;;5050954;28;20135;-71
2022/08/09 09:30:56;;;;;;;3.72;1.85;;;;;;;;;;5051060;28;20041;-71
2022/08/09 09:33:36;;;;;;;6.75;1.27;;;;;;;;;;5050390;28;20196;-71
2022/08/09 09:36:07;;;;;;;4.60;1.45;;;;;;;;;;5050195;28;20068;-70
2022/08/09 09:38:46;;;;;;;9.02;1.70;;;;;;;;;;5051216;28;20036;-70
2022/08/09 09:41:27;;;;;;;6.65;1.83;;;;;;;;;;5050808;28;20043;-70
2022/08/09 09:43:55;;;;;;;7.13;1.45;;;;;;;;;;5051086;28;20037;-71
2022/08/09 09:46:34;;;;;;;3.28;1.25;;;;;;;;;;5050701;28;20059;-69
2022/08/09 09:49:03;;;;;;;7.32;1.42;;;;;;;;;;5031862;28;20059;-69
2022/08/09 09:51:30;;;;;;;5.60;1.52;;;;;;;;;;5030901;28;20033;-70
2022/08/09 09:54:09;;;;;;;5.43;1.50;;;;;;;;;;5028854;28;20548;-70
2022/08/09 09:56:39;;;;;;;7.05;1.83;;;;;;;;;;5029522;28;20036;-71
2022/08/09 09:59:06;;;;;;;3.20;1.20;;;;;;;;;;5048500;28;20095;-71
2022/08/09 10:01:32;;;;;;;7.00;1.70;;;;;;;;;;5049718;28;20029;-72
2022/08/09 10:03:59;;;;;;;5.03;1.50;;;;;;;;;;5049868;28;20033;-70
2022/08/09 10:06:40;;;;;;;4.20;1.55;;;;;;;;;;5050542;28;20506;-71
2022/08/09 10:09:07;;;;;;;6.32;1.95;;;;;;;;;;5051529;28;20091;-72
2022/08/09 10:11:34;;;;;;;4.40;1.42;;;;;;;;;;5051397;28;20519;-69
2022/08/09 10:14:01;;;;;;;4.53;1.73;;;;;;;;;;5051599;28;20041;-69
2022/08/09 10:16:35;;;;;;;5.13;1.45;;;;;;;;;;5051051;28;20033;-71
2022/08/09 10:19:07;;;;;;;8.30;1.70;;;;;;;;;;5051156;28;20029;-72
2022/08/09 10:21:44;;;;;;;5.70;1.48;;;;;;;;;;5051373;28;20480;-71
2022/08/09 10:24:10;;;;;;;4.07;1.50;;;;;;;;;;5048401;28;20032;-70
2022/08/09 10:26:36;;;;;;;4.78;1.52;;;;;;;;;;5044748;28;20033;-70
2022/08/09 10:29:04;;;;;;;7.15;1.90;;;;;;;;;;5039653;28;20073;-70
2022/08/09 10:31:30;;;;;;;5.78;1.30;;;;;;;;;;5041445;28;20055;-71
2022/08/09 10:33:57;;;;;;;7.03;1.70;;;;;;;;;;5040661;28;20041;-72
2022/08/09 10:36:23;;;;;;;2.88;1.35;;;;;;;;;;5039845;28;20029;-70
2022/08/09 10:38:49;;;;;;;4.43;1.45;;;;;;;;;;5041329;28;20032;-71
2022/08/09 10:41:17;;;;;;;7.57;1.88;;;;;;;;;;5040571;28;20049;-70
2022/08/09 10:43:46;;;;;;;5.00;1.67;;;;;;;;;;5048435;28;20182;-71
2022/08/09 10:46:42;;;;;;;6.53;2.10;;;;;;;;;;5050069;28;20028;-71
2022/08/09 10:49:24;;;;;;;5.78;1.67;;;;;;;;;;5042645;28;20036;-69
2022/08/09 10:52:18;;;;;;;5.32;1.58;;;;;;;;;;5042920;28;20040;-70
2022/08/09 10:54:44;;;;;;;4.68;1.50;;;;;;;;;;5030625;28;20041;-70
2022/08/09 10:57:12;;;;;;;2.72;1.50;;;;;;;;;;5030507;28;20109;-71
2022/08/09 10:59:40;;;;;;;8.43;1.90;;;;;;;;;;5030814;28;20124;-71
2022/08/09 11:02:07;;;;;;;5.50;1.58;;;;;;;;;;5030431;28;20026;-70
2022/08/09 11:04:34;;;;;;;3.83;1.52;;;;;;;;;;5030537;28;20042;-70
2022/08/09 11:07:00;;;;;;;2.47;1.58;;;;;;;;;;5030130;28;20051;-72
2022/08/09 11:09:38;;;;;;;7.13;1.70;;;;;;;;;;5030323;28;20834;-70
2022/08/09 11:12:17;;;;;;;7.68;1.48;;;;;;;;;;5030365;28;20065;-71
2022/08/09 11:14:47;;;;;;;7.50;1.77;;;;;;;;;;5029913;28;20112;-71
2022/08/09 11:17:13;;;;;;;6.05;1.83;;;;;;;;;;5030865;28;20038;-71
2022/08/09 11:20:11;;;;;;;2.97;1.50;;;;;;;;;;5030137;28;20036;-70
2022/08/09 11:22:43;;;;;;;5.20;1.70;;;;;;;;;;5034655;28;20373;-70
2022/08/09 11:25:16;;;;;;;6.13;1.75;;;;;;;;;;5033414;28;20457;-70
2022/08/09 11:27:47;;;;;;;5.63;1.73;;;;;;;;;;5033023;28;20109;-70
2022/08/09 11:30:22;;;;;;;3.20;1.75;;;;;;;;;;5035039;28;20508;-70
2022/08/09 11:32:51;;;;;;;4.40;1.70;;;;;;;;;;5034968;28;20037;-70
2022/08/09 11:35:24;;;;;;;4.32;1.85;;;;;;;;;;5052059;28;20079;-71
2022/08/09 11:37:51;;;;;;;7.63;2.50;;;;;;;;;;5054044;28;20033;-71
2022/08/09 11:40:23;;;;;;;4.13;1.90;;;;;;;;;;5055165;28;20029;-71
2022/08/09 11:42:51;;;;;;;5.57;1.77;;;;;;;;;;5055177;28;20476;-70
2022/08/09 11:45:29;;;;;;;4.00;2.00;;;;;;;;;;5054966;28;20031;-72
2022/08/09 11:47:56;;;;;;;5.32;1.90;;;;;;;;;;5055119;28;20037;-71
2022/08/09 11:50:23;;;;;;;8.45;1.63;;;;;;;;;;5055126;28;20029;-71
2022/08/09 11:52:59;;;;;;;3.97;1.60;;;;;;;;;;5054852;28;20091;-73
2022/08/09 11:55:39;;;;;;;5.60;1.98;;;;;;;;;;5054672;28;20095;-72
2022/08/09 11:58:14;;;;;;;8.48;2.00;;;;;;;;;;5054709;28;20098;-72
2022/08/09 12:01:02;;;;;;;4.63;1.48;;;;;;;;;;5053231;28;20029;-72
2022/08/09 12:03:28;;;;;;;7.97;1.77;;;;;;;;;;5054441;28;20037;-72
2022/08/09 12:05:57;;;;;;;5.57;1.70;;;;;;;;;;5054715;28;20033;-72
2022/08/09 12:08:25;;;;;;;10.55;1.77;;;;;;;;;;5054818;28;20037;-70
2022/08/09 12:10:53;;;;;;;3.92;1.75;;;;;;;;;;5054608;28;20476;-73
2022/08/09 12:13:33;;;;;;;3.45;1.83;;;;;;;;;;5054462;28;20109;-74
2022/08/09 12:16:00;;;;;;;8.00;1.92;;;;;;;;;;5054346;28;20454;-73
2022/08/09 12:18:26;;;;;;;4.20;1.70;;;;;;;;;;5054413;28;20029;-72
2022/08/09 12:20:52;;;;;;;7.30;2.35;;;;;;;;;;5054534;28;20029;-71
2022/08/09 12:23:19;;;;;;;5.90;1.60;;;;;;;;;;5054399;28;20031;-73
2022/08/09 12:25:50;;;;;;;3.13;1.52;;;;;;;;;;5054225;28;20036;-71
2022/08/09 12:28:18;;;;;;;5.30;1.73;;;;;;;;;;5054368;28;20029;-74
2022/08/09 12:30:44;;;;;;;3.63;1.63;;;;;;;;;;5054217;28;20033;-73
2022/08/09 12:33:12;;;;;;;3.95;1.50;;;;;;;;;;5054159;28;20024;-71
2022/08/09 12:35:38;;;;;;;5.07;1.50;;;;;;;;;;5054106;28;20472;-71
2022/08/09 12:38:28;;;;;;;5.63;1.90;;;;;;;;;;5054042;28;20447;-71
2022/08/09 12:40:55;;;;;;;9.50;2.05;;;;;;;;;;5054034;28;20044;-71
2022/08/09 12:43:23;;;;;;;4.03;1.65;;;;;;;;;;5053926;28;20384;-71
2022/08/09 12:45:51;;;;;;;2.17;1.40;;;;;;;;;;5053871;28;20033;-71
2022/08/09 12:48:17;;;;;;;5.40;1.65;;;;;;;;;;5053943;28;20033;-71
2022/08/09 12:50:44;;;;;;;4.15;1.50;;;;;;;;;;5054029;28;20029;-72
2022/08/09 12:53:32;;;;;;;5.45;1.83;;;;;;;;;;5053860;28;20104;-72
2022/08/09 12:56:16;;;;;;;3.78;1.60;;;;;;;;;;5053457;28;20469;-71
2022/08/09 12:59:07;;;;;;;3.55;1.45;;;;;;;;;;5052546;28;20488;-71
2022/08/09 13:01:34;;;;;;;11.02;3.67;;;;;;;;;;5053622;28;20052;-71
2022/08/09 13:04:05;;;;;;;3.70;1.67;;;;;;;;;;5053296;28;20029;-71
2022/08/09 13:06:33;;;;;;;5.32;2.15;;;;;;;;;;5053459;28;20079;-70
2022/08/09 13:09:24;;;;;;;5.03;1.80;;;;;;;;;;5053503;28;20112;-71
2022/08/09 13:11:58;;;;;;;3.47;1.48;;;;;;;;;;5053446;28;20029;-70
2022/08/09 13:14:26;;;;;;;4.50;1.70;;;;;;;;;;5053452;28;20486;-71
2022/08/09 13:16:53;;;;;;;3.13;1.55;;;;;;;;;;5053447;28;20061;-71
2022/08/09 13:19:32;;;;;;;4.47;1.90;;;;;;;;;;5053301;28;20043;-72
2022/08/09 13:22:17;;;;;;;3.53;1.40;;;;;;;;;;5053367;28;20091;-71
2022/08/09 13:24:53;;;;;;;7.35;1.85;;;;;;;;;;5053178;28;20041;-71
2022/08/09 13:27:25;;;;;;;5.03;1.67;;;;;;;;;;5053194;28;20035;-70
2022/08/09 13:29:56;;;;;;;4.57;1.60;;;;;;;;;;5053100;28;20047;-71
2022/08/09 13:32:24;;;;;;;9.27;1.73;;;;;;;;;;5053214;28;20091;-71
2022/08/09 13:34:51;;;;;;;4.25;1.80;;;;;;;;;;5052843;28;20450;-72
2022/08/09 13:37:17;;;;;;;4.28;1.77;;;;;;;;;;5053259;28;20465;-72
2022/08/09 13:39:44;;;;;;;2.65;1.40;;;;;;;;;;5053097;28;20437;-71
2022/08/09 13:42:14;;;;;;;3.97;1.75;;;;;;;;;;5053181;28;20029;-71
2022/08/09 13:44:41;;;;;;;3.72;1.77;;;;;;;;;;5052233;28;20064;-71
2022/08/09 13:47:11;;;;;;;6.28;1.60;;;;;;;;;;5052824;28;20044;-71
2022/08/09 13:49:38;;;;;;;2.17;1.42;;;;;;;;;;5052847;28;20041;-70
2022/08/09 13:52:05;;;;;;;3.83;1.65;;;;;;;;;;5052822;28;20048;-71
2022/08/09 13:54:31;;;;;;;4.60;1.80;;;;;;;;;;5052951;28;20468;-72
2022/08/09 13:56:57;;;;;;;6.05;1.67;;;;;;;;;;5051852;28;20037;-71
2022/08/09 13:59:23;;;;;;;6.88;1.80;;;;;;;;;;5036770;28;20032;-71
2022/08/09 14:01:49;;;;;;;3.33;1.55;;;;;;;;;;5048835;28;20492;-70
2022/08/09 14:04:15;;;;;;;4.82;1.40;;;;;;;;;;5040581;28;20454;-72
2022/08/09 14:06:41;;;;;;;2.92;1.70;;;;;;;;;;5051941;28;20029;-73
2022/08/09 14:09:08;;;;;;;6.05;1.50;;;;;;;;;;5039118;28;20029;-75
2022/08/09 14:11:33;;;;;;;7.13;1.67;;;;;;;;;;5043152;28;20036;-72
2022/08/09 14:13:59;;;;;;;3.60;1.67;;;;;;;;;;5051701;28;20041;-72
2022/08/09 14:16:26;;;;;;;5.25;1.55;;;;;;;;;;5052122;28;20037;-72
2022/08/09 14:18:52;;;;;;;5.38;1.60;;;;;;;;;;5041603;28;20047;-70
2022/08/09 14:21:20;;;;;;;3.53;1.58;;;;;;;;;;5032005;28;20038;-72
2022/08/09 14:23:48;;;;;;;4.45;1.38;;;;;;;;;;5032087;28;20115;-72
2022/08/09 14:26:14;;;;;;;8.20;1.77;;;;;;;;;;5044422;28;20047;-72
2022/08/09 14:28:40;;;;;;;2.80;1.40;;;;;;;;;;5052081;28;20032;-72
2022/08/09 14:31:06;;;;;;;7.65;1.83;;;;;;;;;;5045893;28;20411;-73
2022/08/09 14:33:32;;;;;;;5.63;1.50;;;;;;;;;;5040621;28;20042;-72
2022/08/09 14:35:58;;;;;;;3.95;1.38;;;;;;;;;;5031882;28;20056;-73
2022/08/09 14:38:24;;;;;;;6.00;1.42;;;;;;;;;;5039871;28;20041;-70
2022/08/09 14:40:51;;;;;;;3.88;1.70;;;;;;;;;;5051996;28;20029;-72
2022/08/09 14:43:17;;;;;;;4.80;1.83;;;;;;;;;;5051941;28;20033;-72
2022/08/09 14:45:43;;;;;;;6.85;1.98;;;;;;;;;;5051978;28;20055;-71
2022/08/09 14:48:09;;;;;;;3.85;1.60;;;;;;;;;;5051965;28;20056;-71
2022/08/09 14:50:36;;;;;;;5.97;1.63;;;;;;;;;;5051328;28;20036;-70
2022/08/09 14:53:05;;;;;;;3.70;1.55;;;;;;;;;;5051760;28;20435;-69